createdAt,value
2023-05-02T00:00:32.204Z,7.20
2023-05-02T00:02:59.114Z,7.03
2023-05-02T00:05:26.876Z,6.95
2023-05-02T00:07:53.663Z,5.03
2023-05-02T00:10:20.548Z,5.03
2023-05-02T00:12:47.125Z,4.75
2023-05-02T00:15:13.979Z,4.72
2023-05-02T00:17:44.387Z,4.55
2023-05-02T00:20:12.125Z,4.95
2023-05-02T00:22:39.634Z,4.55
2023-05-02T00:25:06.827Z,5.35
2023-05-02T00:27:33.615Z,4.85
2023-05-02T00:30:00.889Z,4.85
2023-05-02T00:32:28.184Z,5.05
2023-05-02T00:34:55.039Z,4.80
2023-05-02T00:37:21.624Z,4.40
2023-05-02T00:39:48.304Z,4.50
2023-05-02T00:42:14.972Z,3.85
2023-05-02T00:44:41.554Z,4.25
2023-05-02T00:47:08.342Z,3.88
2023-05-02T00:49:34.909Z,4.03
2023-05-02T00:52:01.948Z,3.85
2023-05-02T00:54:28.808Z,3.45
2023-05-02T00:56:55.522Z,3.70
2023-05-02T00:59:22.508Z,3.63
2023-05-02T01:02:13.664Z,3.35
2023-05-02T01:04:51.902Z,3.67
2023-05-02T01:07:45.135Z,3.20
2023-05-02T01:10:59.932Z,3.47
2023-05-02T01:13:31.904Z,3.40
2023-05-02T01:16:01.714Z,4.15
2023-05-02T01:18:32.622Z,3.78
2023-05-02T01:21:04.864Z,3.65
2023-05-02T01:23:57.319Z,3.63
2023-05-02T01:26:36.771Z,3.50
2023-05-02T01:29:08.493Z,3.38
2023-05-02T01:31:38.372Z,3.45
2023-05-02T01:34:10.036Z,3.92
2023-05-02T01:36:48.835Z,3.35
2023-05-02T01:39:20.447Z,4.32
2023-05-02T01:41:50.882Z,3.67
2023-05-02T01:44:19.899Z,3.30
2023-05-02T01:46:48.468Z,4.25
2023-05-02T01:49:15.850Z,3.78
2023-05-02T01:51:50.286Z,4.03
2023-05-02T01:54:20.570Z,3.80
2023-05-02T01:56:47.730Z,3.78
2023-05-02T01:59:23.262Z,3.67
2023-05-02T02:01:51.719Z,4.03
2023-05-02T02:04:19.991Z,3.97
2023-05-02T02:06:51.292Z,3.88
2023-05-02T02:09:18.204Z,3.70
2023-05-02T02:11:53.699Z,4.07
2023-05-02T02:14:24.562Z,4.03
2023-05-02T02:16:57.705Z,4.30
2023-05-02T02:19:24.901Z,4.43
2023-05-02T02:21:54.628Z,4.03
2023-05-02T02:24:22.817Z,4.43
2023-05-02T02:26:49.704Z,4.28
2023-05-02T02:29:16.390Z,4.05
2023-05-02T02:31:43.067Z,4.00
2023-05-02T02:34:10.012Z,5.20
2023-05-02T02:36:41.895Z,5.00
2023-05-02T02:39:42.278Z,4.10
2023-05-02T02:42:23.214Z,4.38
2023-05-02T02:44:56.578Z,4.40
2023-05-02T02:47:32.480Z,4.55
2023-05-02T02:50:11.541Z,4.63
2023-05-02T02:53:02.896Z,4.97
2023-05-02T02:55:41.668Z,4.72
2023-05-02T02:58:26.930Z,3.78
2023-05-02T03:00:53.947Z,5.45
2023-05-02T03:03:22.814Z,4.88
2023-05-02T03:05:49.906Z,4.80
2023-05-02T03:08:16.805Z,4.63
2023-05-02T03:10:43.462Z,5.32
2023-05-02T03:13:10.051Z,4.53
2023-05-02T03:15:52.273Z,5.88
2023-05-02T03:18:19.263Z,4.35
2023-05-02T03:20:46.119Z,4.03
2023-05-02T03:23:12.969Z,4.10
2023-05-02T03:25:39.578Z,4.65
2023-05-02T03:28:06.215Z,3.63
2023-05-02T03:30:33.074Z,4.88
2023-05-02T03:33:00.645Z,3.70
2023-05-02T03:35:27.325Z,4.18
2023-05-02T03:37:54.059Z,4.50
2023-05-02T03:40:22.006Z,3.47
2023-05-02T03:42:48.740Z,3.88
2023-05-02T03:45:15.684Z,3.47
2023-05-02T03:47:42.612Z,2.90
2023-05-02T03:50:09.483Z,4.45
2023-05-02T03:52:36.228Z,3.72
2023-05-02T03:55:03.169Z,2.92
2023-05-02T03:57:32.868Z,3.35
2023-05-02T04:00:00.819Z,3.00
2023-05-02T04:02:27.822Z,3.00
2023-05-02T04:04:54.491Z,3.17
2023-05-02T04:07:21.325Z,3.25
2023-05-02T04:09:47.984Z,3.28
2023-05-02T04:12:15.702Z,2.80
2023-05-02T04:14:42.496Z,2.95
2023-05-02T04:17:09.211Z,2.33
2023-05-02T04:19:35.876Z,2.70
2023-05-02T04:22:03.833Z,2.38
2023-05-02T04:24:30.393Z,3.13
2023-05-02T04:26:57.024Z,2.42
2023-05-02T04:29:23.670Z,3.05
2023-05-02T04:31:51.584Z,2.50
2023-05-02T04:34:18.125Z,2.60
2023-05-02T04:36:47.912Z,2.70
2023-05-02T04:39:14.526Z,2.00
2023-05-02T04:41:41.693Z,2.50
2023-05-02T04:44:08.480Z,2.53
2023-05-02T04:46:35.103Z,2.95
2023-05-02T04:49:02.170Z,2.45
2023-05-02T04:51:29.307Z,2.72
2023-05-02T04:53:55.860Z,2.30
2023-05-02T04:56:22.579Z,3.08
2023-05-02T04:58:49.320Z,2.28
2023-05-02T05:01:16.394Z,2.47
2023-05-02T05:03:43.427Z,2.95
2023-05-02T05:06:10.354Z,2.55
2023-05-02T05:08:37.016Z,2.50
2023-05-02T05:11:05.193Z,2.88
2023-05-02T05:13:32.552Z,2.30
2023-05-02T05:15:59.258Z,3.22
2023-05-02T05:18:25.981Z,2.72
2023-05-02T05:20:53.066Z,2.95
2023-05-02T05:23:19.588Z,3.03
2023-05-02T05:25:46.259Z,2.92
2023-05-02T05:28:13.052Z,2.65
2023-05-02T05:30:39.654Z,3.08
2023-05-02T05:33:06.288Z,3.10
2023-05-02T05:35:33.300Z,3.25
2023-05-02T05:37:59.866Z,2.65
2023-05-02T05:40:26.750Z,3.05
2023-05-02T05:42:54.042Z,3.05
2023-05-02T05:45:20.700Z,2.65
2023-05-02T05:47:47.256Z,2.85
2023-05-02T05:50:14.291Z,3.33
2023-05-02T05:52:41.084Z,3.53
2023-05-02T05:55:08.100Z,3.28
2023-05-02T05:57:34.944Z,3.05
2023-05-02T06:00:02.009Z,3.30
2023-05-02T06:02:29.276Z,3.10
2023-05-02T06:04:56.252Z,3.20
2023-05-02T06:07:23.063Z,3.40
2023-05-02T06:09:49.647Z,2.92
2023-05-02T06:12:16.695Z,3.60
2023-05-02T06:14:43.471Z,3.42
2023-05-02T06:17:10.096Z,4.75
2023-05-02T06:19:37.040Z,2.90
2023-05-02T06:22:03.647Z,3.28
2023-05-02T06:24:30.209Z,3.13
2023-05-02T06:26:57.030Z,3.25
2023-05-02T06:29:23.622Z,3.85
2023-05-02T06:31:51.433Z,3.63
2023-05-02T06:34:18.341Z,3.03
2023-05-02T06:36:45.129Z,4.20
2023-05-02T06:39:11.780Z,3.28
2023-05-02T06:41:38.505Z,3.00
2023-05-02T06:44:05.450Z,3.05
2023-05-02T06:46:32.287Z,3.17
2023-05-02T06:48:59.083Z,3.45
2023-05-02T06:51:26.032Z,3.60
2023-05-02T06:53:52.749Z,3.00
2023-05-02T06:56:19.761Z,2.70
2023-05-02T06:58:46.424Z,3.28
2023-05-02T07:01:13.092Z,2.90
2023-05-02T07:03:40.073Z,3.20
2023-05-02T07:06:06.718Z,3.75
2023-05-02T07:08:33.516Z,3.33
2023-05-02T07:11:00.154Z,3.00
2023-05-02T07:13:26.762Z,3.70
2023-05-02T07:15:53.793Z,2.53
2023-05-02T07:18:21.326Z,3.25
2023-05-02T07:20:48.325Z,2.85
2023-05-02T07:23:14.933Z,3.00
2023-05-02T07:25:41.922Z,2.72
2023-05-02T07:28:08.716Z,2.60
2023-05-02T07:30:35.371Z,3.08
2023-05-02T07:33:02.533Z,2.67
2023-05-02T07:35:29.176Z,2.80
2023-05-02T07:37:55.881Z,3.15
2023-05-02T07:40:22.833Z,2.70
2023-05-02T07:42:50.844Z,3.05
2023-05-02T07:45:17.578Z,3.03
2023-05-02T07:47:45.991Z,2.70
2023-05-02T07:50:12.661Z,2.65
2023-05-02T07:52:39.258Z,2.95
2023-05-02T07:55:06.760Z,3.05
2023-05-02T07:57:33.410Z,3.95
2023-05-02T08:00:00.340Z,3.42
2023-05-02T08:02:27.714Z,2.70
2023-05-02T08:04:54.476Z,3.00
2023-05-02T08:07:21.576Z,3.47
2023-05-02T08:09:48.594Z,3.25
2023-05-02T08:12:15.180Z,3.20
2023-05-02T08:14:41.842Z,2.75
2023-05-02T08:17:08.670Z,2.97
2023-05-02T08:19:35.405Z,2.67
2023-05-02T08:22:02.039Z,2.92
2023-05-02T08:24:29.613Z,2.30
2023-05-02T08:26:56.180Z,4.15
2023-05-02T08:29:24.133Z,2.95
2023-05-02T08:31:51.109Z,2.70
2023-05-02T08:34:17.807Z,2.80
2023-05-02T08:36:44.397Z,2.15
2023-05-02T08:39:11.834Z,2.50
2023-05-02T08:41:39.005Z,2.13
2023-05-02T08:44:07.834Z,1.88
2023-05-02T08:46:37.962Z,2.28
2023-05-02T08:49:05.617Z,2.45
2023-05-02T08:51:33.546Z,2.20
2023-05-02T08:54:03.066Z,2.08
2023-05-02T08:56:30.039Z,2.17
2023-05-02T08:58:56.619Z,2.05
2023-05-02T09:01:24.702Z,2.20
2023-05-02T09:03:52.420Z,2.42
2023-05-02T09:06:21.123Z,2.30
2023-05-02T09:08:50.469Z,1.90
2023-05-02T09:11:18.124Z,1.63
2023-05-02T09:13:46.679Z,2.00
2023-05-02T09:16:15.567Z,1.80
2023-05-02T09:18:45.959Z,1.80
2023-05-02T09:21:17.289Z,1.67
2023-05-02T09:23:47.972Z,1.70
2023-05-02T09:26:16.034Z,1.75
2023-05-02T09:28:46.679Z,2.65
2023-05-02T09:31:49.527Z,2.13
2023-05-02T09:34:18.322Z,2.10
2023-05-02T09:36:47.565Z,2.30
2023-05-02T09:39:16.814Z,1.92
2023-05-02T09:41:48.389Z,2.45
2023-05-02T09:44:19.047Z,2.20
2023-05-02T09:46:48.097Z,1.98
2023-05-02T09:49:18.982Z,1.90
2023-05-02T09:51:47.661Z,1.98
2023-05-02T09:54:15.088Z,2.55
2023-05-02T09:56:56.794Z,1.92
2023-05-02T09:59:24.370Z,2.15
2023-05-02T10:01:59.113Z,1.70
2023-05-02T10:04:26.765Z,2.00
2023-05-02T10:06:54.684Z,1.60
2023-05-02T10:09:23.236Z,1.55
2023-05-02T10:11:54.712Z,1.75
2023-05-02T10:14:28.625Z,1.80
2023-05-02T10:17:10.095Z,1.73
2023-05-02T10:22:07.905Z,1.87
2023-05-02T10:24:34.876Z,1.50
2023-05-02T10:27:04.024Z,1.80
2023-05-02T10:29:31.796Z,1.70
2023-05-02T10:32:01.120Z,1.70
2023-05-02T10:34:28.304Z,1.60
2023-05-02T10:37:01.306Z,1.70
2023-05-02T10:39:28.958Z,2.03
2023-05-02T10:41:58.463Z,2.03
2023-05-02T10:44:41.356Z,1.80
2023-05-02T10:47:22.989Z,1.77
2023-05-02T10:49:55.206Z,1.77
2023-05-02T10:52:34.134Z,1.60
2023-05-02T10:55:23.300Z,1.58
2023-05-02T10:57:59.277Z,1.70
2023-05-02T11:00:34.186Z,2.08
2023-05-02T11:03:02.282Z,1.55
2023-05-02T11:05:29.366Z,1.60
2023-05-02T11:08:20.288Z,1.83
2023-05-02T11:10:48.811Z,1.60
2023-05-02T11:13:15.573Z,1.90
2023-05-02T11:15:42.396Z,2.10
2023-05-02T11:18:12.508Z,2.35
2023-05-02T11:20:42.853Z,1.70
2023-05-02T11:23:15.742Z,2.25
2023-05-02T11:25:43.694Z,2.00
2023-05-02T11:28:38.490Z,2.20
2023-05-02T11:31:06.799Z,1.60
2023-05-02T11:33:33.873Z,1.70
2023-05-02T11:36:01.406Z,1.80
2023-05-02T11:38:36.809Z,1.70
2023-05-02T11:41:04.491Z,2.35
2023-05-02T11:43:32.437Z,2.30
2023-05-02T11:46:01.994Z,2.00
2023-05-02T11:48:30.723Z,2.22
2023-05-02T11:51:02.296Z,2.00
2023-05-02T11:53:29.954Z,2.20
2023-05-02T11:55:59.136Z,2.13
2023-05-02T11:58:30.036Z,2.20
2023-05-02T12:00:57.394Z,1.90
2023-05-02T12:03:32.914Z,1.60
2023-05-02T12:06:14.148Z,1.85
2023-05-02T12:08:42.995Z,1.60
2023-05-02T12:11:09.821Z,1.70
2023-05-02T12:13:48.533Z,1.75
2023-05-02T12:16:16.539Z,1.70
2023-05-02T12:18:43.896Z,1.60
2023-05-02T12:21:11.055Z,1.88
2023-05-02T12:23:40.036Z,1.48
2023-05-02T12:26:33.881Z,1.80
2023-05-02T12:29:02.701Z,1.45
2023-05-02T12:31:31.361Z,1.42
2023-05-02T12:34:00.497Z,2.00
2023-05-02T12:36:33.651Z,1.30
2023-05-02T12:39:02.230Z,1.95
2023-05-02T12:41:33.492Z,1.80
2023-05-02T12:44:01.102Z,1.50
2023-05-02T12:46:31.636Z,1.30
2023-05-02T12:49:03.230Z,1.55
2023-05-02T12:51:31.602Z,1.60
2023-05-02T12:53:58.495Z,1.42
2023-05-02T12:56:27.692Z,1.42
2023-05-02T12:58:54.421Z,1.77
2023-05-02T13:01:21.240Z,1.70
2023-05-02T13:03:51.215Z,1.63
2023-05-02T13:06:18.693Z,1.20
2023-05-02T13:08:45.568Z,1.60
2023-05-02T13:11:13.490Z,1.20
2023-05-02T13:13:40.149Z,1.20
2023-05-02T13:16:08.325Z,1.40
2023-05-02T13:18:35.376Z,1.10
2023-05-02T13:21:02.099Z,1.20
2023-05-02T13:23:28.836Z,1.00
2023-05-02T13:25:55.948Z,1.38
2023-05-02T13:28:22.742Z,1.40
2023-05-02T13:30:49.526Z,1.30
2023-05-02T13:33:16.706Z,1.70
2023-05-02T13:35:43.644Z,1.63
2023-05-02T13:38:10.439Z,1.60
2023-05-02T13:40:37.013Z,1.90
2023-05-02T13:43:03.718Z,1.92
2023-05-02T13:45:30.683Z,1.92
2023-05-02T13:47:57.420Z,1.70
2023-05-02T13:50:24.119Z,1.70
2023-05-02T13:52:50.970Z,1.50
2023-05-02T13:55:17.702Z,1.83
2023-05-02T13:57:44.964Z,1.42
2023-05-02T14:00:12.298Z,1.40
2023-05-02T14:02:39.402Z,1.65
2023-05-02T14:05:07.128Z,1.88
2023-05-02T14:07:33.916Z,1.50
2023-05-02T14:10:00.959Z,1.55
2023-05-02T14:12:28.386Z,1.80
2023-05-02T14:14:55.227Z,1.50
2023-05-02T14:17:21.830Z,1.83
2023-05-02T14:19:48.983Z,1.88
2023-05-02T14:22:16.337Z,1.70
2023-05-02T14:24:43.077Z,1.83
2023-05-02T14:27:13.078Z,1.17
2023-05-02T14:29:40.209Z,1.50
2023-05-02T14:32:07.360Z,1.73
2023-05-02T14:34:34.182Z,1.27
2023-05-02T14:37:01.003Z,1.65
2023-05-02T14:39:27.916Z,1.27
2023-05-02T14:41:54.737Z,1.30
2023-05-02T14:44:21.501Z,1.38
2023-05-02T14:46:48.210Z,1.40
2023-05-02T14:49:15.127Z,1.35
2023-05-02T14:51:42.994Z,8.52
2023-05-02T14:54:09.683Z,1.83
2023-05-02T14:56:36.771Z,2.30
2023-05-02T14:59:03.472Z,1.30
2023-05-02T15:01:30.519Z,15.20
2023-05-02T15:04:06.736Z,5.03
2023-05-02T15:06:36.411Z,1.85
2023-05-02T15:09:04.911Z,1.45
2023-05-02T15:11:31.799Z,2.40
2023-05-02T15:13:59.460Z,2.17
2023-05-02T15:16:27.114Z,1.80
2023-05-02T15:18:54.188Z,1.45
2023-05-02T15:21:21.202Z,1.83
2023-05-02T15:23:48.042Z,1.70
2023-05-02T15:26:14.712Z,1.67
2023-05-02T15:28:41.602Z,1.52
2023-05-02T15:31:08.474Z,1.80
2023-05-02T15:33:35.120Z,1.52
2023-05-02T15:36:02.580Z,2.05
2023-05-02T15:38:29.839Z,1.65
2023-05-02T15:41:00.329Z,1.55
2023-05-02T15:45:57.159Z,6.85
2023-05-02T15:48:28.042Z,2.50
2023-05-02T15:53:24.884Z,1.65
2023-05-02T15:55:52.750Z,1.83
2023-05-02T15:58:20.942Z,1.85
2023-05-02T16:00:47.628Z,1.75
2023-05-02T16:03:15.448Z,2.30
2023-05-02T16:05:44.068Z,2.00
2023-05-02T16:08:10.712Z,1.92
2023-05-02T16:10:39.237Z,1.60
2023-05-02T16:13:06.289Z,1.50
2023-05-02T16:15:32.930Z,1.42
2023-05-02T16:17:59.898Z,1.52
2023-05-02T16:20:28.990Z,1.80
2023-05-02T16:22:55.641Z,1.65
2023-05-02T16:25:22.316Z,1.48
2023-05-02T16:27:49.235Z,1.60
2023-05-02T16:30:15.998Z,1.90
2023-05-02T16:32:42.644Z,1.33
2023-05-02T16:35:12.587Z,1.65
2023-05-02T16:37:43.501Z,2.13
2023-05-02T16:40:11.322Z,1.90
2023-05-02T16:42:39.130Z,1.80
2023-05-02T16:45:07.214Z,2.25
2023-05-02T16:47:35.022Z,1.67
2023-05-02T16:50:02.225Z,4.72
2023-05-02T16:52:29.350Z,2.17
2023-05-02T16:54:56.648Z,1.60
2023-05-02T16:57:23.864Z,2.28
2023-05-02T16:59:52.406Z,1.70
2023-05-02T17:02:22.744Z,2.10
2023-05-02T17:04:50.229Z,1.40
2023-05-02T17:07:17.556Z,1.77
2023-05-02T17:09:44.642Z,1.38
2023-05-02T17:12:12.779Z,2.03
2023-05-02T17:14:42.397Z,1.52
2023-05-02T17:17:10.105Z,1.83
2023-05-02T17:19:37.330Z,1.50
2023-05-02T17:22:05.271Z,1.88
2023-05-02T17:24:33.219Z,1.80
2023-05-02T17:27:01.048Z,1.60
2023-05-02T17:29:27.649Z,1.95
2023-05-02T17:31:56.983Z,1.58
2023-05-02T17:34:28.749Z,1.60
2023-05-02T17:36:56.025Z,1.60
2023-05-02T17:39:23.384Z,1.58
2023-05-02T17:41:50.279Z,1.67
2023-05-02T17:44:17.069Z,2.28
2023-05-02T17:46:43.733Z,1.80
2023-05-02T17:49:10.863Z,1.77
2023-05-02T17:51:37.618Z,1.60
2023-05-02T17:54:04.363Z,1.42
2023-05-02T17:56:34.498Z,1.60
2023-05-02T17:59:01.315Z,1.90
2023-05-02T18:01:28.018Z,1.80
2023-05-02T18:03:54.930Z,1.60
2023-05-02T18:06:21.896Z,2.13
2023-05-02T18:08:48.541Z,1.60
2023-05-02T18:11:17.046Z,1.70
2023-05-02T18:13:44.794Z,1.40
2023-05-02T18:16:13.921Z,2.13
2023-05-02T18:18:40.866Z,1.52
2023-05-02T18:21:09.617Z,1.45
2023-05-02T18:23:36.385Z,1.92
2023-05-02T18:26:03.762Z,1.30
2023-05-02T18:28:30.659Z,1.50
2023-05-02T18:30:57.343Z,1.50
2023-05-02T18:33:24.629Z,1.70
2023-05-02T18:35:51.438Z,1.48
2023-05-02T18:38:18.375Z,1.80
2023-05-02T18:40:45.532Z,2.42
2023-05-02T18:43:12.420Z,1.67
2023-05-02T18:45:39.102Z,1.90
2023-05-02T18:48:06.118Z,1.70
2023-05-02T18:50:32.943Z,1.55
2023-05-02T18:52:59.679Z,2.35
2023-05-02T18:55:26.484Z,1.83
2023-05-02T18:57:53.280Z,2.08
2023-05-02T19:00:20.535Z,1.80
2023-05-02T19:02:48.111Z,2.05
2023-05-02T19:05:15.175Z,1.98
2023-05-02T19:07:42.460Z,1.80
2023-05-02T19:10:11.282Z,2.03
2023-05-02T19:12:38.393Z,1.75
2023-05-02T19:15:06.783Z,1.80
2023-05-02T19:17:33.844Z,1.55
2023-05-02T19:20:01.343Z,1.90
2023-05-02T19:22:28.018Z,1.70
2023-05-02T19:24:55.303Z,2.00
2023-05-02T19:27:22.273Z,2.60
2023-05-02T19:29:53.154Z,1.85
2023-05-02T19:32:22.081Z,1.85
2023-05-02T19:34:48.810Z,1.80
2023-05-02T19:37:15.395Z,2.95
2023-05-02T19:39:42.164Z,1.67
2023-05-02T19:42:09.302Z,2.17
2023-05-02T19:44:35.939Z,2.08
2023-05-02T19:47:02.565Z,2.05
2023-05-02T19:49:29.535Z,1.80
2023-05-02T19:51:56.171Z,2.20
2023-05-02T19:54:22.859Z,2.10
2023-05-02T19:56:49.552Z,1.77
2023-05-02T19:59:16.163Z,1.88
2023-05-02T20:01:43.185Z,2.75
2023-05-02T20:04:09.937Z,3.60
2023-05-02T20:06:36.611Z,5.22
2023-05-02T20:09:03.620Z,5.82
2023-05-02T20:11:30.938Z,5.25
2023-05-02T20:13:57.673Z,3.78
2023-05-02T20:16:24.741Z,3.50
2023-05-02T20:18:52.892Z,2.80
2023-05-02T20:21:19.535Z,2.40
2023-05-02T20:23:46.186Z,2.90
2023-05-02T20:26:14.233Z,2.35
2023-05-02T20:28:40.835Z,2.38
2023-05-02T20:31:08.212Z,2.45
2023-05-02T20:33:44.769Z,2.15
2023-05-02T20:36:13.526Z,2.33
2023-05-02T20:38:42.365Z,2.35
2023-05-02T20:41:12.607Z,2.40
2023-05-02T20:43:45.163Z,2.30
2023-05-02T20:46:13.648Z,2.67
2023-05-02T20:48:40.366Z,2.75
2023-05-02T20:51:08.785Z,2.95
2023-05-02T20:53:39.282Z,3.28
2023-05-02T20:56:06.796Z,3.47
2023-05-02T20:58:33.772Z,3.30
2023-05-02T21:01:00.421Z,3.60
2023-05-02T21:03:28.150Z,3.83
2023-05-02T21:05:56.408Z,3.53
2023-05-02T21:08:23.328Z,3.75
2023-05-02T21:10:50.110Z,4.35
2023-05-02T21:13:17.231Z,4.13
2023-05-02T21:15:43.953Z,4.25
2023-05-02T21:18:10.674Z,4.05
2023-05-02T21:20:41.573Z,3.88
2023-05-02T21:23:11.251Z,3.55
2023-05-02T21:25:38.451Z,3.43
2023-05-02T21:28:06.207Z,3.05
2023-05-02T21:30:32.899Z,2.80
2023-05-02T21:32:59.692Z,2.88
2023-05-02T21:35:27.108Z,2.80
2023-05-02T21:37:53.720Z,3.20
2023-05-02T21:40:20.389Z,3.60
2023-05-02T21:42:47.085Z,3.25
2023-05-02T21:45:13.740Z,3.22
2023-05-02T21:47:41.032Z,2.90
2023-05-02T21:50:08.705Z,2.90
2023-05-02T21:52:36.002Z,2.83
2023-05-02T21:55:02.833Z,2.60
2023-05-02T21:57:29.749Z,2.42
2023-05-02T21:59:56.383Z,2.85
2023-05-02T22:02:23.656Z,3.08
2023-05-02T22:04:51.124Z,3.25
2023-05-02T22:07:17.794Z,2.83
2023-05-02T22:09:44.698Z,2.67
2023-05-02T22:12:11.785Z,2.83
2023-05-02T22:14:45.426Z,2.53
2023-05-02T22:17:13.483Z,2.60
2023-05-02T22:19:40.663Z,2.83
2023-05-02T22:22:07.412Z,2.42
2023-05-02T22:24:34.268Z,2.85
2023-05-02T22:27:00.937Z,2.55
2023-05-02T22:29:27.551Z,2.55
2023-05-02T22:31:54.465Z,2.95
2023-05-02T22:34:21.167Z,2.40
2023-05-02T22:36:47.774Z,2.30
2023-05-02T22:39:15.897Z,2.40
2023-05-02T22:41:43.176Z,2.38
2023-05-02T22:44:10.561Z,2.20
2023-05-02T22:46:38.688Z,2.58
2023-05-02T22:49:07.666Z,2.15
2023-05-02T22:51:34.309Z,2.65
2023-05-02T22:54:03.304Z,2.50
2023-05-02T22:56:30.049Z,2.50
2023-05-02T22:58:56.665Z,2.17
2023-05-02T23:01:23.498Z,2.53
2023-05-02T23:03:50.178Z,2.75
2023-05-02T23:06:17.344Z,2.55
2023-05-02T23:08:44.089Z,2.40
2023-05-02T23:11:10.710Z,2.50
2023-05-02T23:13:37.359Z,2.60
2023-05-02T23:16:04.809Z,2.17
2023-05-02T23:18:31.707Z,2.72
2023-05-02T23:20:58.313Z,2.60
2023-05-02T23:23:25.172Z,2.70
2023-05-02T23:25:51.845Z,2.65
2023-05-02T23:28:18.488Z,2.40
2023-05-02T23:30:45.940Z,2.55
2023-05-02T23:33:13.003Z,2.47
2023-05-02T23:35:39.760Z,2.40
2023-05-02T23:38:08.171Z,2.83
2023-05-02T23:40:34.994Z,2.78
2023-05-02T23:43:01.854Z,3.03
2023-05-02T23:45:28.856Z,2.72
2023-05-02T23:47:55.914Z,2.97
2023-05-02T23:50:22.564Z,2.30
2023-05-02T23:52:49.333Z,2.70
2023-05-02T23:55:16.100Z,2.95
2023-05-02T23:57:42.739Z,3.30
